Terminal Aerodrome Forecast
Issued by NWS Atlanta, GA

Home | Current Version | Previous Version | Text Only | Print | Product List | Glossary On
Versions: 1 2 3 4 5 6 7 8 9 10 11 12 13
388
FTUS42 KFFC 212320
TAFCSG
TAF
KCSG 212320Z 2200/2224 11010KT P6SM BKN050
     FM220400 10008KT P6SM OVC050
     FM220800 10010KT P6SM OVC030
     FM221000 10011KT P6SM VCSH FEW008 OVC015
     FM221200 10013G22KT P6SM SHRA OVC010
     FM221500 10012G20KT P6SM SHRA OVC015=

USA.gov is the U.S. government's official web portal to all federal, state and local government web resources and services.